createdAt,value
2018-07-22T00:01:39.130Z,70.90
2018-07-22T00:04:43.524Z,71.00
2018-07-22T00:07:47.379Z,70.20
2018-07-22T00:10:51.272Z,70.90
2018-07-22T00:13:55.225Z,71.00
2018-07-22T00:16:59.174Z,70.60
2018-07-22T00:20:03.084Z,70.70
2018-07-22T00:23:06.973Z,70.50
2018-07-22T00:26:10.874Z,70.40
2018-07-22T00:29:14.870Z,70.60
2018-07-22T00:32:18.730Z,70.70
2018-07-22T00:35:22.610Z,71.50
2018-07-22T00:38:26.470Z,71.30
2018-07-22T00:41:30.384Z,71.50
2018-07-22T00:51:44.344Z,71.60
2018-07-22T00:54:48.194Z,71.50
2018-07-22T00:57:52.058Z,71.00
2018-07-22T01:00:56.012Z,71.20
2018-07-22T01:03:59.951Z,72.20
2018-07-22T01:07:03.854Z,72.90
2018-07-22T01:10:07.789Z,72.60
2018-07-22T01:13:11.804Z,73.30
2018-07-22T01:16:15.769Z,73.50
2018-07-22T01:19:19.711Z,73.70
2018-07-22T01:22:23.660Z,73.80
2018-07-22T01:25:27.568Z,73.80
2018-07-22T01:28:31.495Z,73.80
2018-07-22T01:31:35.439Z,73.30
2018-07-22T01:34:39.359Z,73.20
2018-07-22T01:37:43.273Z,73.30
2018-07-22T01:40:47.248Z,74.00
2018-07-22T01:43:51.143Z,73.20
2018-07-22T01:46:55.047Z,73.60
2018-07-22T01:49:58.964Z,73.30
2018-07-22T01:53:02.908Z,73.20
2018-07-22T01:56:06.843Z,73.10
2018-07-22T01:59:10.745Z,72.90
2018-07-22T02:02:14.644Z,72.30
2018-07-22T02:05:18.551Z,72.20
2018-07-22T02:08:22.486Z,72.10
2018-07-22T02:11:26.413Z,71.90
2018-07-22T02:14:30.298Z,71.70
2018-07-22T02:17:34.252Z,71.60
2018-07-22T02:20:38.236Z,71.50
2018-07-22T02:23:42.211Z,71.30
2018-07-22T02:26:46.183Z,71.60
2018-07-22T02:29:50.086Z,71.40
2018-07-22T02:32:54.004Z,71.60
2018-07-22T02:35:57.896Z,71.60
2018-07-22T02:39:01.790Z,71.50
2018-07-22T02:42:05.755Z,71.50
2018-07-22T02:45:09.701Z,71.30
2018-07-22T02:48:13.603Z,71.40
2018-07-22T02:51:17.522Z,71.50
2018-07-22T02:54:21.445Z,71.50
2018-07-22T02:57:25.324Z,71.50
2018-07-22T03:00:29.254Z,71.60
2018-07-22T03:03:33.134Z,71.70
2018-07-22T03:06:37.099Z,71.50
2018-07-22T03:09:40.969Z,71.50
2018-07-22T03:12:44.854Z,71.50
2018-07-22T03:15:48.852Z,71.60
2018-07-22T03:18:52.753Z,71.30
2018-07-22T03:21:56.703Z,71.10
2018-07-22T03:25:00.581Z,71.40
2018-07-22T03:28:04.465Z,71.40
2018-07-22T03:31:08.429Z,72.00
2018-07-22T03:34:12.314Z,72.40
2018-07-22T03:37:16.198Z,72.90
2018-07-22T03:40:20.234Z,73.00
2018-07-22T03:43:24.183Z,73.40
2018-07-22T03:46:28.169Z,73.50
2018-07-22T03:49:32.099Z,73.50
2018-07-22T03:52:36.051Z,73.40
2018-07-22T03:55:39.979Z,73.50
2018-07-22T03:58:43.874Z,73.60
2018-07-22T04:01:47.765Z,73.50
2018-07-22T04:04:51.635Z,73.70
2018-07-22T04:07:55.510Z,73.40
2018-07-22T04:10:59.513Z,73.30
2018-07-22T04:14:03.473Z,73.10
2018-07-22T04:17:07.596Z,72.70
2018-07-22T04:20:11.500Z,72.70
2018-07-22T04:23:15.428Z,72.50
2018-07-22T04:26:19.814Z,72.20
2018-07-22T04:29:23.734Z,72.00
2018-07-22T04:32:27.614Z,71.80
2018-07-22T04:35:31.539Z,71.30
2018-07-22T04:38:35.912Z,71.30
2018-07-22T04:41:39.802Z,70.80
2018-07-22T04:44:43.826Z,70.70
2018-07-22T04:47:47.705Z,70.40
2018-07-22T04:50:51.589Z,70.20
2018-07-22T04:53:55.534Z,69.80
2018-07-22T04:56:59.415Z,70.20
2018-07-22T05:00:03.511Z,69.90
2018-07-22T05:03:07.372Z,69.70
2018-07-22T05:06:11.260Z,69.50
2018-07-22T05:09:15.161Z,68.60
2018-07-22T05:12:19.049Z,68.20
2018-07-22T05:15:22.928Z,67.60
2018-07-22T05:18:26.840Z,68.00
2018-07-22T05:21:30.724Z,68.00
2018-07-22T05:24:34.639Z,67.90
2018-07-22T05:27:38.502Z,67.80
2018-07-22T05:30:42.530Z,68.10
2018-07-22T05:33:46.414Z,69.60
2018-07-22T05:36:50.290Z,70.10
2018-07-22T05:39:54.198Z,70.50
2018-07-22T05:42:58.115Z,69.90
2018-07-22T05:46:02.020Z,69.20
2018-07-22T05:49:06.123Z,69.20
2018-07-22T05:52:10.019Z,69.10
2018-07-22T05:55:13.938Z,69.10
2018-07-22T05:58:17.827Z,69.40
2018-07-22T06:01:21.750Z,68.10
2018-07-22T06:04:25.645Z,69.30
2018-07-22T06:07:30.377Z,69.50
2018-07-22T06:10:34.239Z,69.90
2018-07-22T06:13:38.238Z,69.80
2018-07-22T06:16:42.194Z,69.30
2018-07-22T06:19:46.147Z,69.50
2018-07-22T06:22:50.037Z,69.40
2018-07-22T06:25:54.044Z,69.10
2018-07-22T06:28:57.946Z,68.20
2018-07-22T06:32:02.481Z,67.90
2018-07-22T06:35:06.819Z,67.10
2018-07-22T06:38:10.759Z,67.20
2018-07-22T06:41:14.739Z,65.40
2018-07-22T06:44:18.657Z,65.10
2018-07-22T06:47:22.592Z,64.40
2018-07-22T06:50:29.059Z,63.60
2018-07-22T06:53:33.353Z,62.40
2018-07-22T06:56:37.341Z,61.50
2018-07-22T06:59:42.021Z,61.40
2018-07-22T07:02:45.970Z,61.30
2018-07-22T07:05:49.893Z,61.10
2018-07-22T07:08:53.769Z,61.50
2018-07-22T07:11:57.844Z,61.60
2018-07-22T07:15:01.771Z,61.10
2018-07-22T07:18:05.926Z,61.00
2018-07-22T07:21:09.870Z,60.60
2018-07-22T07:24:13.883Z,59.70
2018-07-22T07:27:17.810Z,58.80
2018-07-22T07:30:21.721Z,58.40
2018-07-22T07:33:25.649Z,57.60
2018-07-22T07:36:29.546Z,56.60
2018-07-22T07:39:33.492Z,56.40
2018-07-22T07:42:37.391Z,55.90
2018-07-22T07:45:41.364Z,55.70
2018-07-22T07:48:45.265Z,55.60
2018-07-22T07:51:49.199Z,55.40
2018-07-22T07:54:53.151Z,55.60
2018-07-22T07:57:57.055Z,55.40
2018-07-22T08:01:01.023Z,54.70
2018-07-22T08:04:04.894Z,54.50
2018-07-22T08:07:08.862Z,53.60
2018-07-22T08:10:12.731Z,51.10
2018-07-22T08:13:16.645Z,49.70
2018-07-22T08:16:20.555Z,49.20
2018-07-22T08:19:24.479Z,48.70
2018-07-22T08:22:28.575Z,47.40
2018-07-22T08:25:32.575Z,47.20
2018-07-22T08:28:50.352Z,47.60
2018-07-22T08:31:54.311Z,47.00
2018-07-22T08:34:58.363Z,47.50
2018-07-22T08:38:02.347Z,46.90
2018-07-22T08:41:06.253Z,47.10
2018-07-22T08:44:10.910Z,45.70
2018-07-22T08:47:14.825Z,45.00
2018-07-22T08:50:18.735Z,44.10
2018-07-22T08:53:22.671Z,42.60
2018-07-22T08:56:26.539Z,41.30
2018-07-22T08:59:30.593Z,41.50
2018-07-22T09:02:34.508Z,40.40
2018-07-22T09:05:39.405Z,39.10
2018-07-22T09:08:43.725Z,38.50
2018-07-22T09:11:47.914Z,38.70
2018-07-22T09:14:51.804Z,37.80
2018-07-22T09:17:55.900Z,36.70
2018-07-22T09:20:59.859Z,36.90
2018-07-22T09:24:03.923Z,36.50
2018-07-22T09:27:08.466Z,36.00
2018-07-22T09:30:12.453Z,36.70
2018-07-22T09:33:16.346Z,35.70
2018-07-22T09:36:20.472Z,35.90
2018-07-22T09:39:24.409Z,36.60
2018-07-22T09:42:28.330Z,36.40
2018-07-22T09:45:32.335Z,36.60
2018-07-22T09:48:36.276Z,36.00
2018-07-22T09:51:40.231Z,36.10
2018-07-22T09:54:44.158Z,34.70
2018-07-22T09:57:48.287Z,34.80
2018-07-22T10:01:01.160Z,33.90
2018-07-22T10:04:05.234Z,35.90
2018-07-22T10:07:09.623Z,35.60
2018-07-22T10:10:13.610Z,35.50
2018-07-22T10:13:17.579Z,35.40
2018-07-22T10:16:21.483Z,35.30
2018-07-22T10:19:25.512Z,36.30
2018-07-22T10:22:29.465Z,37.70
2018-07-22T10:25:33.470Z,37.50
2018-07-22T10:28:37.423Z,38.40
2018-07-22T10:31:41.324Z,38.20
2018-07-22T10:34:45.219Z,38.80
2018-07-22T10:37:49.257Z,39.10
2018-07-22T10:40:53.155Z,38.80
2018-07-22T10:43:57.162Z,38.50
2018-07-22T10:47:01.068Z,39.30
2018-07-22T10:50:05.312Z,39.40
2018-07-22T10:53:09.211Z,38.90
2018-07-22T10:56:13.160Z,38.50
2018-07-22T10:59:17.102Z,38.00
2018-07-22T11:02:21.111Z,37.30
2018-07-22T11:05:25.008Z,38.30
2018-07-22T11:08:29.010Z,37.10
2018-07-22T11:11:32.942Z,37.70
2018-07-22T11:14:36.974Z,36.90
2018-07-22T11:17:41.430Z,36.50
2018-07-22T11:20:45.371Z,36.20
2018-07-22T11:23:49.292Z,36.80
2018-07-22T11:26:53.439Z,36.20
2018-07-22T11:29:57.407Z,35.70
2018-07-22T11:33:01.326Z,36.00
2018-07-22T11:36:06.031Z,35.60
2018-07-22T11:39:11.175Z,36.10
2018-07-22T11:42:15.165Z,36.00
2018-07-22T11:45:19.055Z,36.80
2018-07-22T11:48:22.986Z,37.00
2018-07-22T11:51:26.934Z,37.00
2018-07-22T11:54:30.845Z,37.70
2018-07-22T11:57:34.798Z,39.20
2018-07-22T12:00:38.690Z,39.60
2018-07-22T12:03:42.671Z,40.80
2018-07-22T12:06:46.724Z,42.60
2018-07-22T12:09:50.629Z,43.10
2018-07-22T12:12:54.533Z,43.80
2018-07-22T12:15:58.511Z,43.50
2018-07-22T12:19:02.440Z,43.20
2018-07-22T12:22:06.385Z,43.20
2018-07-22T12:25:10.315Z,43.80
2018-07-22T12:28:14.307Z,42.70
2018-07-22T12:31:18.227Z,41.40
2018-07-22T12:34:22.196Z,41.90
2018-07-22T12:37:26.074Z,41.20
2018-07-22T12:40:30.124Z,40.30
2018-07-22T12:43:34.053Z,40.10
2018-07-22T12:46:38.053Z,40.10
2018-07-22T12:49:42.044Z,40.00
2018-07-22T12:52:45.951Z,39.70
2018-07-22T12:55:49.905Z,40.20
2018-07-22T12:58:53.870Z,41.40
2018-07-22T13:01:57.859Z,41.70
2018-07-22T13:05:01.836Z,41.40
2018-07-22T13:08:06.246Z,41.60
2018-07-22T13:11:10.182Z,42.80
2018-07-22T13:14:14.193Z,43.90
2018-07-22T13:17:18.235Z,44.50
2018-07-22T13:20:22.246Z,46.10
2018-07-22T13:23:26.297Z,46.30
2018-07-22T13:26:30.164Z,47.00
2018-07-22T13:29:34.091Z,47.30
2018-07-22T13:32:37.968Z,45.80
2018-07-22T13:35:41.842Z,46.90
2018-07-22T13:38:45.703Z,47.30
2018-07-22T13:41:49.616Z,47.70
2018-07-22T13:44:53.604Z,47.60
2018-07-22T13:47:57.521Z,47.40
2018-07-22T13:51:01.514Z,47.10
2018-07-22T13:54:05.461Z,46.50
2018-07-22T13:57:09.417Z,46.80
2018-07-22T14:00:13.370Z,46.80
2018-07-22T14:03:18.497Z,47.20
2018-07-22T14:06:23.133Z,48.00
2018-07-22T14:09:27.018Z,48.90
2018-07-22T14:12:30.986Z,49.50
2018-07-22T14:15:34.979Z,49.80
2018-07-22T14:18:38.851Z,50.30
2018-07-22T14:21:42.844Z,50.70
2018-07-22T14:24:46.799Z,50.40
2018-07-22T14:27:50.807Z,49.80
2018-07-22T14:30:54.718Z,49.30
2018-07-22T14:33:59.026Z,49.00
2018-07-22T14:37:03.490Z,49.10
2018-07-22T14:40:13.347Z,49.00
2018-07-22T14:43:17.315Z,48.70
2018-07-22T14:46:21.274Z,49.30
2018-07-22T14:49:25.262Z,49.20
2018-07-22T14:52:29.171Z,49.60
2018-07-22T14:55:33.210Z,49.60
2018-07-22T14:58:37.206Z,49.60
2018-07-22T15:01:41.149Z,49.10
2018-07-22T15:04:45.204Z,48.90
2018-07-22T15:07:49.117Z,48.70
2018-07-22T15:10:53.067Z,48.90
2018-07-22T15:13:57.323Z,48.70
2018-07-22T15:17:01.399Z,49.00
2018-07-22T15:20:06.067Z,45.90
2018-07-22T15:23:10.191Z,46.20
2018-07-22T15:26:14.531Z,46.50
2018-07-22T15:29:18.537Z,45.70
2018-07-22T15:32:22.622Z,45.20
2018-07-22T15:35:26.662Z,46.30
2018-07-22T15:38:30.645Z,46.00
2018-07-22T15:41:35.146Z,45.40
2018-07-22T15:44:39.139Z,43.70
2018-07-22T15:47:43.145Z,42.70
2018-07-22T15:50:50.869Z,42.40
2018-07-22T15:53:54.813Z,42.90
2018-07-22T15:56:59.015Z,42.70
2018-07-22T16:00:03.865Z,42.50
2018-07-22T16:03:07.894Z,42.40
2018-07-22T16:06:11.912Z,42.40
2018-07-22T16:09:15.832Z,42.70
2018-07-22T16:12:19.897Z,43.20
2018-07-22T16:15:23.972Z,43.00
2018-07-22T16:18:28.138Z,43.10
2018-07-22T16:21:32.113Z,43.60
2018-07-22T16:24:36.125Z,43.30
2018-07-22T16:27:40.160Z,43.40
2018-07-22T16:30:44.120Z,43.50
2018-07-22T16:33:48.191Z,43.30
2018-07-22T16:36:52.163Z,43.00
2018-07-22T16:39:56.215Z,42.90
2018-07-22T16:43:00.314Z,42.70
2018-07-22T16:46:04.475Z,43.10
2018-07-22T16:49:08.503Z,43.60
2018-07-22T16:52:12.637Z,43.60
2018-07-22T16:55:16.578Z,44.00
2018-07-22T16:58:20.562Z,43.80
2018-07-22T17:01:24.539Z,44.20
2018-07-22T17:04:28.491Z,44.80
2018-07-22T17:07:32.471Z,45.20
2018-07-22T17:10:36.447Z,45.00
2018-07-22T17:13:40.358Z,45.10
2018-07-22T17:16:44.299Z,45.40
2018-07-22T17:19:48.282Z,45.70
2018-07-22T17:22:52.334Z,45.30
2018-07-22T17:25:56.324Z,45.20
2018-07-22T17:29:00.634Z,45.60
2018-07-22T17:32:05.528Z,45.80
2018-07-22T17:35:09.565Z,46.00
2018-07-22T17:38:13.531Z,46.20
2018-07-22T17:41:17.589Z,46.60
2018-07-22T17:44:21.552Z,46.70
2018-07-22T17:47:25.753Z,46.50
2018-07-22T17:50:29.762Z,47.00
2018-07-22T17:53:33.718Z,47.30
2018-07-22T17:56:37.683Z,47.00
2018-07-22T17:59:41.672Z,47.30
2018-07-22T18:02:48.366Z,47.70
2018-07-22T18:05:52.674Z,47.80
2018-07-22T18:08:56.650Z,48.10
2018-07-22T18:12:01.085Z,48.30
2018-07-22T18:15:05.703Z,49.30
2018-07-22T18:18:09.970Z,49.10
2018-07-22T18:21:13.934Z,49.10
2018-07-22T18:24:17.998Z,49.10
2018-07-22T18:27:22.199Z,49.50
2018-07-22T18:30:26.374Z,49.00
2018-07-22T18:33:30.344Z,48.50
2018-07-22T18:36:34.330Z,48.70
2018-07-22T18:39:38.326Z,48.60
2018-07-22T18:42:43.786Z,48.20
2018-07-22T18:45:47.994Z,48.60
2018-07-22T18:48:52.132Z,48.50
2018-07-22T18:51:56.163Z,48.90
2018-07-22T18:55:00.444Z,48.90
2018-07-22T18:58:04.882Z,49.00
2018-07-22T19:01:09.190Z,49.20
2018-07-22T19:04:13.539Z,49.20
2018-07-22T19:07:17.853Z,49.40
2018-07-22T19:10:22.181Z,49.50
2018-07-22T19:13:26.506Z,49.60
2018-07-22T19:16:30.918Z,49.30
2018-07-22T19:19:37.289Z,49.50
2018-07-22T19:22:47.443Z,49.70
2018-07-22T19:25:51.929Z,49.60
2018-07-22T19:28:56.262Z,50.00
2018-07-22T19:32:00.582Z,50.20
2018-07-22T19:35:05.052Z,50.60
2018-07-22T19:38:09.381Z,50.80
2018-07-22T19:41:13.738Z,50.90
2018-07-22T19:44:17.957Z,50.90
2018-07-22T19:47:22.294Z,51.10
2018-07-22T19:50:26.680Z,51.80
2018-07-22T19:53:31.091Z,52.60
2018-07-22T19:56:35.572Z,53.20
2018-07-22T19:59:39.949Z,54.00
2018-07-22T20:02:44.282Z,54.70
2018-07-22T20:05:48.628Z,54.50
2018-07-22T20:08:52.996Z,54.90
2018-07-22T20:11:57.397Z,55.60
2018-07-22T20:15:01.767Z,55.40
2018-07-22T20:18:06.184Z,55.30
2018-07-22T20:21:10.549Z,55.90
2018-07-22T20:24:15.880Z,56.00
2018-07-22T20:27:20.226Z,56.50
2018-07-22T20:30:24.695Z,57.70
2018-07-22T20:33:28.737Z,57.60
2018-07-22T20:36:32.763Z,57.10
2018-07-22T20:39:37.003Z,56.60
2018-07-22T20:42:41.064Z,56.30
2018-07-22T20:45:44.988Z,55.70
2018-07-22T20:48:49.125Z,55.60
2018-07-22T20:51:53.212Z,55.40
2018-07-22T20:54:59.118Z,55.80
2018-07-22T20:58:03.010Z,56.30
2018-07-22T21:01:07.529Z,56.80
2018-07-22T21:04:11.568Z,56.40
2018-07-22T21:07:16.115Z,55.80
2018-07-22T21:10:20.043Z,55.60
2018-07-22T21:13:26.377Z,55.50
2018-07-22T21:16:30.334Z,55.40
2018-07-22T21:19:34.302Z,55.50
2018-07-22T21:22:38.600Z,55.40
2018-07-22T21:25:42.593Z,55.30
2018-07-22T21:28:46.578Z,55.40
2018-07-22T21:31:50.612Z,56.20
2018-07-22T21:34:54.600Z,56.10
2018-07-22T21:37:58.767Z,56.60
2018-07-22T21:41:02.645Z,56.40
2018-07-22T21:44:06.614Z,56.40
2018-07-22T21:47:11.592Z,56.50
2018-07-22T21:50:15.613Z,56.20
2018-07-22T21:53:19.613Z,55.80
2018-07-22T21:56:23.576Z,55.80
2018-07-22T21:59:27.617Z,56.10
2018-07-22T22:02:34.437Z,56.10
2018-07-22T22:05:38.483Z,56.10
2018-07-22T22:08:42.438Z,56.50
2018-07-22T22:11:46.401Z,56.00
2018-07-22T22:14:50.353Z,56.00
2018-07-22T22:17:55.723Z,56.00
2018-07-22T22:20:59.754Z,56.90
2018-07-22T22:24:03.775Z,57.00
2018-07-22T22:27:07.712Z,57.20
2018-07-22T22:30:12.817Z,57.60
2018-07-22T22:33:16.785Z,58.30
2018-07-22T22:36:20.718Z,59.60
2018-07-22T22:39:24.652Z,59.90
2018-07-22T22:42:28.542Z,60.40
2018-07-22T22:45:32.556Z,60.50
2018-07-22T22:48:36.449Z,60.50
2018-07-22T22:51:40.408Z,60.90
2018-07-22T22:54:44.360Z,60.80
2018-07-22T22:57:59.233Z,61.50
2018-07-22T23:01:03.208Z,61.40
2018-07-22T23:04:07.091Z,62.20
2018-07-22T23:07:11.065Z,62.30
2018-07-22T23:10:14.960Z,62.60
2018-07-22T23:13:18.990Z,62.70
2018-07-22T23:16:22.976Z,62.80
2018-07-22T23:19:26.917Z,61.60
2018-07-22T23:22:30.767Z,61.70
2018-07-22T23:25:34.655Z,62.50
2018-07-22T23:28:38.579Z,62.00
2018-07-22T23:31:42.455Z,62.00
2018-07-22T23:34:46.425Z,62.20
2018-07-22T23:37:50.305Z,62.00
2018-07-22T23:40:54.193Z,62.70
2018-07-22T23:43:58.078Z,63.20
2018-07-22T23:47:02.018Z,64.30
2018-07-22T23:50:06.149Z,64.60
2018-07-22T23:53:10.165Z,66.00
2018-07-22T23:56:14.107Z,66.40
2018-07-22T23:59:18.010Z,65.60
